createdAt,value
2018-03-30T00:01:32.681Z,95.80
2018-03-30T00:04:00.852Z,95.90
2018-03-30T00:06:29.054Z,95.40
2018-03-30T00:08:57.189Z,95.40
2018-03-30T00:11:28.866Z,95.50
2018-03-30T00:13:56.999Z,95.80
2018-03-30T00:16:25.124Z,95.70
2018-03-30T00:18:53.276Z,95.90
2018-03-30T00:21:21.394Z,95.70
2018-03-30T00:23:50.293Z,96.00
2018-03-30T00:26:19.182Z,96.00
2018-03-30T00:28:47.356Z,96.00
2018-03-30T00:31:15.475Z,96.30
2018-03-30T00:33:44.399Z,96.20
2018-03-30T00:36:12.533Z,95.90
2018-03-30T00:38:40.662Z,95.90
2018-03-30T00:41:08.864Z,95.60
2018-03-30T00:43:36.976Z,95.70
2018-03-30T00:46:05.129Z,95.70
2018-03-30T00:48:33.246Z,95.70
2018-03-30T00:51:01.522Z,95.60
2018-03-30T00:53:54.490Z,95.40
2018-03-30T00:56:22.619Z,95.40
2018-03-30T00:58:51.613Z,95.30
2018-03-30T01:01:19.780Z,95.30
2018-03-30T01:03:47.992Z,95.20
2018-03-30T01:06:16.156Z,95.40
2018-03-30T01:08:44.325Z,95.60
2018-03-30T01:11:12.574Z,95.80
2018-03-30T01:13:41.486Z,95.90
2018-03-30T01:16:10.411Z,95.80
2018-03-30T01:18:38.549Z,95.80
2018-03-30T01:21:06.744Z,96.10
2018-03-30T01:23:35.648Z,96.90
2018-03-30T01:26:04.629Z,96.70
2018-03-30T01:28:32.877Z,96.70
2018-03-30T01:31:01.034Z,96.50
2018-03-30T01:33:30.000Z,96.70
2018-03-30T01:35:58.140Z,96.60
2018-03-30T01:38:26.414Z,96.60
2018-03-30T01:40:55.328Z,96.50
2018-03-30T01:43:23.506Z,96.50
2018-03-30T01:45:52.625Z,96.30
2018-03-30T01:48:20.762Z,96.30
2018-03-30T01:50:48.885Z,96.50
2018-03-30T01:53:17.853Z,96.70
2018-03-30T01:55:46.026Z,96.70
2018-03-30T01:58:14.451Z,96.70
2018-03-30T02:00:42.759Z,97.00
2018-03-30T02:03:11.879Z,97.00
2018-03-30T02:05:39.986Z,97.00
2018-03-30T02:08:08.105Z,96.50
2018-03-30T02:10:36.249Z,96.60
2018-03-30T02:13:04.393Z,96.90
2018-03-30T02:15:33.352Z,96.50
2018-03-30T02:18:01.517Z,96.50
2018-03-30T02:20:29.619Z,96.50
2018-03-30T02:22:57.832Z,96.60
2018-03-30T02:25:25.972Z,97.00
2018-03-30T02:27:54.151Z,97.20
2018-03-30T02:30:22.279Z,96.90
2018-03-30T02:32:50.411Z,97.10
2018-03-30T02:35:19.529Z,97.10
2018-03-30T02:37:47.689Z,97.10
2018-03-30T02:40:16.832Z,97.10
2018-03-30T02:42:44.969Z,97.00
2018-03-30T02:45:13.092Z,97.30
2018-03-30T02:47:41.340Z,97.50
2018-03-30T02:50:09.475Z,97.40
2018-03-30T02:52:37.655Z,98.00
2018-03-30T02:55:06.546Z,97.20
2018-03-30T02:57:35.563Z,97.30
2018-03-30T03:00:04.451Z,97.50
2018-03-30T03:02:32.659Z,97.50
2018-03-30T03:05:00.834Z,97.90
2018-03-30T03:07:29.731Z,97.20
2018-03-30T03:09:58.625Z,97.20
2018-03-30T03:12:27.530Z,97.50
2018-03-30T03:14:56.559Z,96.70
2018-03-30T03:17:25.469Z,96.60
2018-03-30T03:19:53.576Z,96.50
2018-03-30T03:22:21.761Z,96.80
2018-03-30T03:24:49.897Z,96.80
2018-03-30T03:27:18.815Z,97.10
2018-03-30T03:29:47.766Z,97.10
2018-03-30T03:32:15.944Z,97.10
2018-03-30T03:34:44.082Z,97.30
2018-03-30T03:37:13.225Z,97.90
2018-03-30T03:39:41.336Z,97.50
2018-03-30T03:42:09.493Z,97.60
2018-03-30T03:44:37.629Z,97.80
2018-03-30T03:47:05.768Z,97.60
2018-03-30T03:49:34.000Z,97.50
2018-03-30T03:52:03.690Z,97.60
2018-03-30T03:54:31.815Z,97.50
2018-03-30T03:57:00.733Z,97.70
2018-03-30T03:59:29.681Z,97.60
2018-03-30T04:01:57.814Z,97.60
2018-03-30T04:04:26.732Z,97.90
2018-03-30T04:06:55.630Z,98.20
2018-03-30T04:09:24.590Z,98.20
2018-03-30T04:11:52.703Z,98.20
2018-03-30T04:14:20.879Z,98.20
2018-03-30T04:16:48.992Z,97.90
2018-03-30T04:19:17.896Z,97.90
2018-03-30T04:21:46.016Z,97.90
2018-03-30T04:24:14.162Z,97.90
2018-03-30T04:26:42.287Z,98.10
2018-03-30T04:29:10.443Z,98.20
2018-03-30T04:31:39.385Z,98.20
2018-03-30T04:34:07.536Z,98.40
2018-03-30T04:36:35.718Z,98.20
2018-03-30T04:39:05.536Z,98.50
2018-03-30T04:41:34.423Z,98.60
2018-03-30T04:44:02.571Z,98.60
2018-03-30T04:46:30.833Z,98.80
2018-03-30T04:48:59.656Z,99.00
2018-03-30T04:51:27.793Z,99.30
2018-03-30T04:53:55.957Z,99.30
2018-03-30T04:56:24.117Z,99.30
2018-03-30T04:58:52.270Z,99.20
2018-03-30T05:01:21.172Z,99.10
2018-03-30T05:03:50.126Z,99.10
2018-03-30T05:06:18.284Z,99.00
2018-03-30T05:08:46.466Z,99.00
2018-03-30T05:11:14.608Z,98.90
2018-03-30T05:13:42.721Z,98.90
2018-03-30T05:16:10.981Z,98.90
2018-03-30T05:18:39.157Z,98.80
2018-03-30T05:21:07.364Z,99.10
2018-03-30T05:23:35.479Z,99.20
2018-03-30T05:26:03.730Z,99.40
2018-03-30T05:28:31.904Z,99.30
2018-03-30T05:31:00.166Z,99.30
2018-03-30T05:33:28.349Z,99.30
2018-03-30T05:35:56.536Z,99.30
2018-03-30T05:38:24.774Z,99.20
2018-03-30T05:40:52.874Z,99.20
2018-03-30T05:43:21.780Z,99.20
2018-03-30T05:45:50.698Z,99.20
2018-03-30T05:48:18.838Z,99.20
2018-03-30T05:50:46.991Z,99.30
2018-03-30T05:53:15.194Z,99.30
2018-03-30T05:55:43.398Z,99.30
2018-03-30T05:58:11.506Z,99.30
2018-03-30T06:00:40.461Z,99.70
2018-03-30T06:03:08.605Z,99.40
2018-03-30T06:05:37.539Z,99.60
2018-03-30T06:08:05.728Z,99.50
2018-03-30T06:10:33.867Z,99.60
2018-03-30T06:13:02.898Z,99.60
2018-03-30T06:15:31.816Z,99.60
2018-03-30T06:17:59.922Z,99.60
2018-03-30T06:20:28.116Z,99.60
2018-03-30T06:22:56.179Z,99.70
2018-03-30T06:25:24.290Z,99.90
2018-03-30T06:27:52.432Z,99.80
2018-03-30T06:30:21.402Z,99.80
2018-03-30T06:32:49.625Z,99.80
2018-03-30T06:35:18.605Z,99.00
2018-03-30T06:37:46.733Z,98.90
2018-03-30T06:40:14.969Z,97.40
2018-03-30T06:42:43.122Z,95.80
2018-03-30T06:45:11.337Z,95.00
2018-03-30T06:47:39.482Z,90.20
2018-03-30T06:50:07.634Z,89.70
2018-03-30T06:52:36.601Z,80.20
2018-03-30T06:55:04.774Z,79.90
2018-03-30T06:57:32.920Z,79.00
2018-03-30T07:00:01.888Z,73.30
2018-03-30T07:02:30.093Z,73.20
2018-03-30T07:04:58.232Z,73.70
2018-03-30T07:07:26.393Z,70.50
2018-03-30T07:09:54.537Z,63.60
2018-03-30T07:12:22.689Z,64.50
2018-03-30T07:14:50.836Z,62.00
2018-03-30T07:17:19.699Z,55.40
2018-03-30T07:19:47.884Z,55.40
2018-03-30T07:22:15.984Z,56.90
2018-03-30T07:24:44.147Z,55.40
2018-03-30T07:27:12.266Z,54.20
2018-03-30T07:29:41.986Z,55.70
2018-03-30T07:32:10.095Z,55.60
2018-03-30T07:34:39.061Z,56.30
2018-03-30T07:37:07.152Z,56.30
2018-03-30T07:39:35.331Z,52.80
2018-03-30T07:42:03.464Z,50.40
2018-03-30T07:44:31.681Z,50.30
2018-03-30T07:46:59.861Z,50.60
2018-03-30T07:49:28.003Z,49.00
2018-03-30T07:51:56.919Z,47.50
2018-03-30T07:54:25.144Z,47.50
2018-03-30T07:56:53.249Z,47.50
2018-03-30T07:59:21.420Z,47.50
2018-03-30T08:01:49.597Z,45.90
2018-03-30T08:04:17.694Z,44.40
2018-03-30T09:56:23.621Z,38.90
2018-03-30T09:58:51.736Z,39.90
2018-03-30T10:01:19.963Z,38.70
2018-03-30T10:03:48.879Z,39.90
2018-03-30T10:06:17.023Z,40.90
2018-03-30T10:08:45.252Z,40.40
2018-03-30T10:11:13.478Z,40.10
2018-03-30T10:13:41.625Z,38.80
2018-03-30T10:16:10.564Z,36.60
2018-03-30T10:18:38.684Z,36.50
2018-03-30T10:21:06.832Z,38.70
2018-03-30T10:23:35.382Z,38.50
2018-03-30T10:26:04.340Z,41.00
2018-03-30T10:28:32.542Z,40.90
2018-03-30T10:31:00.750Z,38.80
2018-03-30T10:33:28.895Z,39.20
2018-03-30T10:35:57.251Z,41.30
2018-03-30T10:38:26.156Z,37.10
2018-03-30T10:40:55.118Z,37.40
2018-03-30T10:43:23.176Z,37.40
2018-03-30T10:45:51.694Z,37.00
2018-03-30T10:48:19.845Z,36.50
2018-03-30T10:50:47.980Z,36.30
2018-03-30T10:53:16.205Z,36.20
2018-03-30T10:55:45.114Z,37.60
2018-03-30T10:58:13.205Z,37.50
2018-03-30T11:00:41.341Z,35.20
2018-03-30T11:03:09.442Z,35.50
2018-03-30T11:05:38.404Z,36.50
2018-03-30T11:08:06.544Z,36.40
2018-03-30T11:10:35.452Z,33.80
2018-03-30T11:13:03.560Z,33.70
2018-03-30T11:15:31.776Z,33.60
2018-03-30T11:17:59.891Z,34.60
2018-03-30T11:20:28.046Z,34.30
2018-03-30T11:22:56.171Z,34.30
2018-03-30T11:25:25.104Z,29.90
2018-03-30T11:27:53.230Z,29.80
2018-03-30T11:30:21.383Z,30.00
2018-03-30T11:32:49.609Z,28.50
2018-03-30T11:35:17.820Z,28.10
2018-03-30T11:37:46.706Z,27.70
2018-03-30T11:40:14.837Z,27.70
2018-03-30T11:42:42.933Z,27.40
2018-03-30T11:45:11.113Z,27.80
2018-03-30T11:47:39.210Z,27.00
2018-03-30T11:50:07.362Z,27.70
2018-03-30T11:52:36.267Z,30.00
2018-03-30T11:55:04.356Z,29.50
2018-03-30T11:57:32.485Z,28.70
2018-03-30T12:00:00.644Z,29.00
2018-03-30T12:02:28.777Z,29.70
2018-03-30T12:04:56.899Z,29.10
2018-03-30T12:07:25.045Z,28.60
2018-03-30T12:09:53.169Z,28.90
2018-03-30T12:12:21.405Z,29.70
2018-03-30T12:14:49.513Z,30.00
2018-03-30T12:17:17.657Z,29.00
2018-03-30T12:19:45.828Z,29.30
2018-03-30T12:22:14.038Z,30.30
2018-03-30T12:24:42.175Z,30.40
2018-03-30T12:27:11.041Z,29.10
2018-03-30T12:29:39.214Z,29.00
2018-03-30T12:32:07.396Z,29.80
2018-03-30T12:34:35.511Z,30.80
2018-03-30T12:37:03.663Z,31.80
2018-03-30T12:39:31.792Z,30.30
2018-03-30T12:41:59.947Z,31.10
2018-03-30T12:44:28.087Z,29.80
2018-03-30T12:46:56.991Z,32.20
2018-03-30T12:49:25.145Z,32.00
2018-03-30T12:51:53.269Z,31.80
2018-03-30T12:54:21.388Z,31.40
2018-03-30T12:56:49.520Z,31.20
2018-03-30T12:59:18.505Z,31.20
2018-03-30T13:01:46.639Z,31.40
2018-03-30T13:04:14.790Z,31.20
2018-03-30T13:06:43.778Z,30.70
2018-03-30T13:09:11.945Z,30.70
2018-03-30T13:11:40.059Z,30.00
2018-03-30T13:14:08.255Z,29.90
2018-03-30T13:16:36.458Z,29.10
2018-03-30T13:19:05.764Z,28.80
2018-03-30T13:21:34.690Z,29.40
2018-03-30T13:24:02.832Z,29.40
2018-03-30T13:26:31.052Z,29.20
2018-03-30T13:28:59.176Z,30.00
2018-03-30T13:31:27.449Z,29.80
2018-03-30T13:33:55.629Z,30.00
2018-03-30T13:36:23.809Z,30.60
2018-03-30T13:38:51.946Z,29.50
2018-03-30T13:41:20.087Z,28.40
2018-03-30T13:43:48.195Z,28.90
2018-03-30T13:46:16.316Z,29.60
2018-03-30T13:48:45.226Z,31.40
2018-03-30T13:51:20.599Z,32.90
2018-03-30T13:53:56.283Z,32.80
2018-03-30T13:56:36.636Z,31.70
2018-03-30T13:59:10.294Z,29.90
2018-03-30T14:04:51.671Z,31.40
2018-03-30T14:07:23.954Z,32.50
2018-03-30T14:10:09.215Z,34.00
2018-03-30T14:12:37.279Z,33.90
2018-03-30T14:15:08.873Z,35.40
2018-03-30T14:17:41.199Z,37.10
2018-03-30T14:20:23.729Z,37.10
2018-03-30T14:22:52.704Z,37.90
2018-03-30T14:25:24.296Z,39.30
2018-03-30T14:28:02.473Z,39.30
2018-03-30T14:30:31.451Z,39.30
2018-03-30T14:33:05.322Z,40.10
2018-03-30T14:35:39.904Z,41.40
2018-03-30T14:38:10.348Z,39.90
2018-03-30T14:40:41.964Z,40.50
2018-03-30T14:43:16.625Z,41.60
2018-03-30T14:45:46.136Z,41.50
2018-03-30T14:48:18.021Z,42.30
2018-03-30T14:50:57.860Z,41.40
2018-03-30T14:53:30.378Z,42.20
2018-03-30T14:59:08.123Z,41.10
2018-03-30T15:01:39.673Z,41.10
2018-03-30T15:07:08.724Z,40.30
2018-03-30T15:09:53.387Z,40.20
2018-03-30T15:12:23.268Z,40.50
2018-03-30T15:14:55.122Z,40.50
2018-03-30T15:17:31.833Z,38.50
2018-03-30T15:20:08.355Z,39.00
2018-03-30T15:22:36.549Z,39.50
2018-03-30T15:25:21.159Z,39.20
2018-03-30T15:27:50.883Z,38.90
2018-03-30T15:30:25.410Z,39.30
2018-03-30T15:35:52.994Z,39.60
2018-03-30T15:38:21.060Z,40.00
2018-03-30T15:40:49.179Z,39.70
2018-03-30T15:43:17.951Z,40.40
2018-03-30T15:45:57.982Z,41.10
2018-03-30T15:48:26.051Z,40.70
2018-03-30T15:51:03.672Z,40.30
2018-03-30T15:53:31.259Z,40.50
2018-03-30T15:56:00.080Z,40.30
2018-03-30T15:58:28.148Z,40.20
2018-03-30T16:00:56.969Z,40.20
2018-03-30T16:03:25.055Z,40.10
2018-03-30T16:05:53.133Z,41.00
2018-03-30T16:08:22.014Z,41.20
2018-03-30T16:10:52.601Z,41.10
2018-03-30T16:13:20.819Z,42.40
2018-03-30T16:15:49.697Z,42.10
2018-03-30T16:18:17.844Z,42.00
2018-03-30T16:20:46.245Z,42.30
2018-03-30T16:23:14.628Z,42.60
2018-03-30T16:25:42.992Z,42.80
2018-03-30T16:28:10.664Z,42.70
2018-03-30T16:30:38.333Z,43.00
2018-03-30T16:33:06.036Z,44.10
2018-03-30T16:35:33.681Z,44.50
2018-03-30T16:38:01.390Z,45.20
2018-03-30T16:40:29.795Z,46.00
2018-03-30T16:42:58.188Z,46.50
2018-03-30T16:45:26.141Z,46.50
2018-03-30T16:47:55.310Z,47.20
2018-03-30T16:50:22.957Z,47.10
2018-03-30T16:52:50.607Z,48.00
2018-03-30T16:55:19.032Z,54.80
2018-03-30T16:57:46.663Z,54.00
2018-03-30T17:00:14.358Z,58.40
2018-03-30T17:02:42.777Z,61.50
2018-03-30T17:05:10.430Z,61.40
2018-03-30T17:07:38.812Z,58.80
2018-03-30T17:10:07.274Z,67.40
2018-03-30T17:12:34.889Z,67.30
2018-03-30T17:15:03.345Z,86.80
2018-03-30T17:17:30.958Z,86.30
2018-03-30T17:19:59.320Z,90.80
2018-03-30T17:22:26.980Z,90.70
2018-03-30T17:24:54.675Z,91.50
2018-03-30T17:27:22.299Z,91.70
2018-03-30T17:29:49.945Z,92.30
2018-03-30T17:32:18.338Z,94.50
2018-03-30T17:34:45.960Z,94.50
2018-03-30T17:37:13.674Z,95.70
2018-03-30T17:39:41.308Z,96.00
2018-03-30T17:42:08.997Z,96.60
2018-03-30T17:44:36.699Z,97.20
2018-03-30T17:47:05.074Z,97.80
2018-03-30T17:49:32.707Z,97.70
2018-03-30T17:52:00.317Z,98.10
2018-03-30T17:54:27.983Z,97.90
2018-03-30T17:56:55.683Z,98.10
2018-03-30T17:59:23.284Z,98.10
2018-03-30T18:01:50.915Z,98.40
2018-03-30T18:04:18.551Z,98.60
2018-03-30T18:06:46.228Z,98.70
2018-03-30T18:09:13.889Z,98.70
2018-03-30T18:11:41.593Z,98.50
2018-03-30T18:14:09.192Z,98.20
2018-03-30T18:16:36.852Z,98.30
2018-03-30T18:19:04.501Z,98.70
2018-03-30T18:21:32.167Z,98.70
2018-03-30T18:23:59.796Z,98.60
2018-03-30T18:26:27.492Z,98.60
2018-03-30T18:28:55.884Z,98.60
2018-03-30T18:31:23.523Z,98.60
2018-03-30T18:33:51.135Z,98.80
2018-03-30T18:36:18.743Z,98.70
2018-03-30T18:38:46.434Z,99.00
2018-03-30T18:41:14.041Z,98.90
2018-03-30T18:43:42.471Z,98.90
2018-03-30T18:46:10.087Z,98.90
2018-03-30T18:48:37.767Z,98.70
2018-03-30T18:51:05.430Z,98.80
2018-03-30T18:53:33.108Z,99.00
2018-03-30T18:56:00.720Z,99.10
2018-03-30T18:58:28.331Z,99.00
2018-03-30T19:00:56.014Z,99.10
2018-03-30T19:03:23.624Z,99.20
2018-03-30T19:05:52.021Z,99.20
2018-03-30T19:08:20.413Z,99.20
2018-03-30T19:10:48.938Z,99.30
2018-03-30T19:13:16.646Z,99.30
2018-03-30T19:15:44.304Z,99.50
2018-03-30T19:18:12.027Z,99.50
2018-03-30T19:20:40.421Z,99.60
2018-03-30T19:23:08.804Z,99.60
2018-03-30T19:25:37.227Z,99.60
2018-03-30T19:28:04.872Z,99.50
2018-03-30T19:30:32.515Z,99.70
2018-03-30T19:33:00.125Z,99.70
2018-03-30T19:35:28.488Z,99.90
2018-03-30T19:37:56.140Z,99.90
2018-03-30T19:40:23.785Z,99.90
2018-03-30T19:42:51.418Z,99.90
2018-03-30T19:45:19.032Z,99.90
2018-03-30T19:47:46.698Z,99.90
2018-03-30T19:50:14.471Z,99.90
2018-03-30T19:52:42.887Z,99.90
2018-03-30T19:55:10.519Z,99.90
2018-03-30T19:57:39.005Z,99.90
2018-03-30T20:00:06.690Z,99.90
2018-03-30T20:02:35.101Z,99.90
2018-03-30T20:05:02.718Z,99.90
2018-03-30T20:07:30.349Z,99.90
2018-03-30T20:09:58.045Z,99.90
2018-03-30T20:12:25.694Z,99.90
2018-03-30T20:14:53.317Z,99.90
2018-03-30T20:17:21.019Z,99.90
2018-03-30T20:19:48.640Z,99.90
2018-03-30T20:22:16.415Z,99.90
2018-03-30T20:24:43.967Z,99.90
2018-03-30T20:27:12.400Z,99.90
2018-03-30T20:29:40.020Z,99.90
2018-03-30T20:32:07.660Z,99.90
2018-03-30T20:34:35.376Z,99.90
2018-03-30T20:37:03.818Z,99.90
2018-03-30T20:39:32.153Z,99.90
2018-03-30T20:42:00.569Z,99.90
2018-03-30T20:44:28.198Z,99.90
2018-03-30T20:46:55.844Z,99.90
2018-03-30T20:49:23.486Z,99.90
2018-03-30T20:51:51.133Z,99.90
2018-03-30T20:54:19.549Z,99.90
2018-03-30T20:56:47.149Z,99.90
2018-03-30T20:59:14.790Z,99.90
2018-03-30T21:01:43.194Z,99.90
2018-03-30T21:04:10.846Z,99.90
2018-03-30T21:06:39.262Z,99.90
2018-03-30T21:09:06.886Z,99.90
2018-03-30T21:11:34.525Z,99.90
2018-03-30T21:14:02.195Z,99.90
2018-03-30T21:16:29.881Z,99.90
2018-03-30T21:18:57.537Z,99.90
2018-03-30T21:21:25.950Z,99.90
2018-03-30T21:23:53.597Z,99.90
2018-03-30T21:26:21.214Z,99.90
2018-03-30T21:28:48.959Z,99.90
2018-03-30T21:31:16.631Z,99.90
2018-03-30T21:33:44.273Z,99.90
2018-03-30T21:36:12.655Z,99.90
2018-03-30T21:38:41.052Z,99.90
2018-03-30T21:41:09.439Z,99.90
2018-03-30T21:43:37.843Z,99.90
2018-03-30T21:46:06.204Z,99.90
2018-03-30T21:48:33.874Z,99.90
2018-03-30T21:51:01.481Z,99.90
2018-03-30T21:53:29.883Z,99.90
2018-03-30T21:55:57.506Z,99.90
2018-03-30T21:58:25.120Z,99.90
2018-03-30T22:00:53.574Z,99.90
2018-03-30T22:03:21.212Z,99.90
2018-03-30T22:05:48.862Z,99.90
2018-03-30T22:08:16.485Z,99.90
2018-03-30T22:10:44.096Z,99.90
2018-03-30T22:13:12.508Z,99.90
2018-03-30T22:15:40.114Z,99.90
2018-03-30T22:18:07.746Z,99.90
2018-03-30T22:20:36.150Z,99.90
2018-03-30T22:23:04.539Z,99.90
2018-03-30T22:25:32.156Z,99.90
2018-03-30T22:27:59.795Z,99.90
2018-03-30T22:30:27.430Z,99.90
2018-03-30T22:32:55.079Z,99.90
2018-03-30T22:35:22.767Z,99.90
2018-03-30T22:37:50.379Z,99.90
2018-03-30T22:40:17.987Z,99.90
2018-03-30T22:42:45.641Z,99.90
2018-03-30T22:45:13.274Z,99.90
2018-03-30T22:47:40.867Z,99.90
2018-03-30T22:50:09.313Z,99.90
2018-03-30T22:52:36.994Z,99.90
2018-03-30T22:55:04.625Z,99.90
2018-03-30T22:57:32.265Z,99.90
2018-03-30T23:00:00.645Z,99.90
2018-03-30T23:02:28.314Z,99.90
2018-03-30T23:04:56.080Z,99.90
2018-03-30T23:07:23.818Z,99.90
2018-03-30T23:09:51.455Z,99.90
2018-03-30T23:12:19.110Z,99.90
2018-03-30T23:14:46.926Z,99.90
2018-03-30T23:17:15.299Z,99.90
2018-03-30T23:19:42.961Z,99.90
2018-03-30T23:22:10.551Z,99.90
2018-03-30T23:24:38.156Z,99.90
2018-03-30T23:27:05.860Z,99.90
2018-03-30T23:29:33.496Z,99.90
2018-03-30T23:32:01.175Z,99.90
2018-03-30T23:34:29.605Z,99.90
2018-03-30T23:36:57.317Z,99.90
2018-03-30T23:39:25.007Z,99.90
2018-03-30T23:41:52.656Z,99.90
2018-03-30T23:44:20.277Z,99.90
2018-03-30T23:46:47.949Z,99.90
2018-03-30T23:49:15.616Z,99.90
2018-03-30T23:51:43.279Z,99.90
2018-03-30T23:54:11.679Z,99.90
2018-03-30T23:56:39.296Z,99.90
2018-03-30T23:59:06.990Z,99.90
